sensor_id;sensor_type;location;lat;lon;timestamp;P1;durP1;ratioP1;P2;durP2;ratioP2
23384;SDS011;11865;45.394;10.978;2022-09-29T00:01:15;8.35;;;4.90;;
23384;SDS011;11865;45.394;10.978;2022-09-29T00:03:42;12.23;;;5.35;;
23384;SDS011;11865;45.394;10.978;2022-09-29T00:06:11;14.45;;;5.40;;
23384;SDS011;11865;45.394;10.978;2022-09-29T00:08:41;11.45;;;5.03;;
23384;SDS011;11865;45.394;10.978;2022-09-29T00:11:10;7.25;;;4.90;;
23384;SDS011;11865;45.394;10.978;2022-09-29T00:13:39;5.88;;;4.63;;
23384;SDS011;11865;45.394;10.978;2022-09-29T00:16:07;7.25;;;4.85;;
23384;SDS011;11865;45.394;10.978;2022-09-29T00:18:34;7.88;;;5.30;;
23384;SDS011;11865;45.394;10.978;2022-09-29T00:21:03;8.05;;;5.60;;
23384;SDS011;11865;45.394;10.978;2022-09-29T00:23:35;8.57;;;5.13;;
23384;SDS011;11865;45.394;10.978;2022-09-29T00:28:30;7.55;;;5.18;;
23384;SDS011;11865;45.394;10.978;2022-09-29T00:31:00;11.13;;;5.80;;
23384;SDS011;11865;45.394;10.978;2022-09-29T00:33:29;10.57;;;5.50;;
23384;SDS011;11865;45.394;10.978;2022-09-29T00:36:04;13.48;;;5.65;;
23384;SDS011;11865;45.394;10.978;2022-09-29T00:38:34;11.48;;;5.68;;
23384;SDS011;11865;45.394;10.978;2022-09-29T00:41:02;7.75;;;5.03;;
23384;SDS011;11865;45.394;10.978;2022-09-29T00:46:18;11.45;;;6.18;;
23384;SDS011;11865;45.394;10.978;2022-09-29T00:48:53;15.05;;;7.03;;
23384;SDS011;11865;45.394;10.978;2022-09-29T00:51:24;9.55;;;6.30;;
23384;SDS011;11865;45.394;10.978;2022-09-29T00:53:53;11.27;;;5.70;;
23384;SDS011;11865;45.394;10.978;2022-09-29T00:56:22;9.90;;;5.82;;
23384;SDS011;11865;45.394;10.978;2022-09-29T00:58:53;10.98;;;5.72;;
23384;SDS011;11865;45.394;10.978;2022-09-29T01:01:24;7.43;;;5.95;;
23384;SDS011;11865;45.394;10.978;2022-09-29T01:03:55;12.30;;;6.07;;
23384;SDS011;11865;45.394;10.978;2022-09-29T01:06:30;8.93;;;6.13;;
23384;SDS011;11865;45.394;10.978;2022-09-29T01:09:09;13.77;;;6.38;;
23384;SDS011;11865;45.394;10.978;2022-09-29T01:11:40;13.55;;;6.13;;
23384;SDS011;11865;45.394;10.978;2022-09-29T01:14:09;10.35;;;6.05;;
23384;SDS011;11865;45.394;10.978;2022-09-29T01:16:37;9.43;;;5.78;;
23384;SDS011;11865;45.394;10.978;2022-09-29T01:19:10;12.45;;;5.63;;
23384;SDS011;11865;45.394;10.978;2022-09-29T01:24:50;12.95;;;5.43;;
23384;SDS011;11865;45.394;10.978;2022-09-29T01:32:39;14.43;;;6.15;;
23384;SDS011;11865;45.394;10.978;2022-09-29T01:35:45;10.07;;;5.55;;
23384;SDS011;11865;45.394;10.978;2022-09-29T01:43:43;9.77;;;6.00;;
23384;SDS011;11865;45.394;10.978;2022-09-29T01:46:51;9.80;;;5.93;;
23384;SDS011;11865;45.394;10.978;2022-09-29T01:49:24;8.00;;;5.70;;
23384;SDS011;11865;45.394;10.978;2022-09-29T01:51:59;7.35;;;5.40;;
23384;SDS011;11865;45.394;10.978;2022-09-29T01:54:54;13.23;;;6.65;;
23384;SDS011;11865;45.394;10.978;2022-09-29T02:00:09;11.57;;;5.93;;
23384;SDS011;11865;45.394;10.978;2022-09-29T02:02:41;9.15;;;6.38;;
23384;SDS011;11865;45.394;10.978;2022-09-29T02:05:18;9.02;;;6.68;;
23384;SDS011;11865;45.394;10.978;2022-09-29T02:08:09;8.55;;;6.65;;
23384;SDS011;11865;45.394;10.978;2022-09-29T02:10:45;10.68;;;6.75;;
23384;SDS011;11865;45.394;10.978;2022-09-29T02:13:17;9.50;;;5.95;;
23384;SDS011;11865;45.394;10.978;2022-09-29T02:15:47;8.43;;;6.40;;
23384;SDS011;11865;45.394;10.978;2022-09-29T02:18:23;9.50;;;6.97;;
23384;SDS011;11865;45.394;10.978;2022-09-29T02:21:05;10.75;;;6.85;;
23384;SDS011;11865;45.394;10.978;2022-09-29T02:23:33;11.98;;;6.78;;
23384;SDS011;11865;45.394;10.978;2022-09-29T02:26:01;9.13;;;7.07;;
23384;SDS011;11865;45.394;10.978;2022-09-29T02:28:29;10.50;;;6.70;;
23384;SDS011;11865;45.394;10.978;2022-09-29T02:30:57;10.65;;;6.35;;
23384;SDS011;11865;45.394;10.978;2022-09-29T02:33:26;10.45;;;7.30;;
23384;SDS011;11865;45.394;10.978;2022-09-29T02:35:55;9.57;;;7.18;;
23384;SDS011;11865;45.394;10.978;2022-09-29T02:38:49;11.63;;;6.32;;
23384;SDS011;11865;45.394;10.978;2022-09-29T02:41:33;9.07;;;7.05;;
23384;SDS011;11865;45.394;10.978;2022-09-29T02:55:42;18.80;;;12.00;;
23384;SDS011;11865;45.394;10.978;2022-09-29T02:58:38;20.65;;;11.73;;
23384;SDS011;11865;45.394;10.978;2022-09-29T03:01:15;16.27;;;10.13;;
23384;SDS011;11865;45.394;10.978;2022-09-29T03:03:42;16.13;;;10.18;;
23384;SDS011;11865;45.394;10.978;2022-09-29T03:06:10;19.98;;;10.75;;
23384;SDS011;11865;45.394;10.978;2022-09-29T03:08:39;13.82;;;10.40;;
23384;SDS011;11865;45.394;10.978;2022-09-29T03:11:06;15.35;;;10.15;;
23384;SDS011;11865;45.394;10.978;2022-09-29T03:13:34;16.83;;;10.35;;
23384;SDS011;11865;45.394;10.978;2022-09-29T03:16:01;13.93;;;10.10;;
23384;SDS011;11865;45.394;10.978;2022-09-29T03:18:29;13.57;;;9.88;;
23384;SDS011;11865;45.394;10.978;2022-09-29T03:20:56;18.13;;;11.15;;
23384;SDS011;11865;45.394;10.978;2022-09-29T03:23:23;15.02;;;10.10;;
23384;SDS011;11865;45.394;10.978;2022-09-29T03:25:51;15.40;;;9.77;;
23384;SDS011;11865;45.394;10.978;2022-09-29T03:28:18;15.63;;;11.10;;
23384;SDS011;11865;45.394;10.978;2022-09-29T03:30:45;18.17;;;9.95;;
23384;SDS011;11865;45.394;10.978;2022-09-29T03:33:13;12.90;;;9.63;;
23384;SDS011;11865;45.394;10.978;2022-09-29T03:35:40;19.25;;;10.75;;
23384;SDS011;11865;45.394;10.978;2022-09-29T03:38:10;17.48;;;10.00;;
23384;SDS011;11865;45.394;10.978;2022-09-29T03:40:37;13.23;;;9.63;;
23384;SDS011;11865;45.394;10.978;2022-09-29T03:43:05;13.50;;;9.05;;
23384;SDS011;11865;45.394;10.978;2022-09-29T03:45:32;14.55;;;8.80;;
23384;SDS011;11865;45.394;10.978;2022-09-29T03:48:00;11.95;;;7.47;;
23384;SDS011;11865;45.394;10.978;2022-09-29T03:50:27;14.35;;;8.52;;
23384;SDS011;11865;45.394;10.978;2022-09-29T03:52:54;13.85;;;9.43;;
23384;SDS011;11865;45.394;10.978;2022-09-29T03:55:22;12.18;;;8.73;;
23384;SDS011;11865;45.394;10.978;2022-09-29T03:57:49;12.70;;;8.90;;
23384;SDS011;11865;45.394;10.978;2022-09-29T04:00:17;14.43;;;9.60;;
23384;SDS011;11865;45.394;10.978;2022-09-29T04:02:44;19.15;;;10.43;;
23384;SDS011;11865;45.394;10.978;2022-09-29T04:05:12;13.50;;;9.63;;
23384;SDS011;11865;45.394;10.978;2022-09-29T04:07:39;15.15;;;9.45;;
23384;SDS011;11865;45.394;10.978;2022-09-29T04:10:07;16.05;;;9.52;;
23384;SDS011;11865;45.394;10.978;2022-09-29T04:12:34;17.17;;;9.30;;
23384;SDS011;11865;45.394;10.978;2022-09-29T04:15:02;11.95;;;9.30;;
23384;SDS011;11865;45.394;10.978;2022-09-29T04:17:30;16.33;;;9.02;;
23384;SDS011;11865;45.394;10.978;2022-09-29T04:19:57;16.67;;;9.68;;
23384;SDS011;11865;45.394;10.978;2022-09-29T04:22:25;16.25;;;9.60;;
23384;SDS011;11865;45.394;10.978;2022-09-29T04:24:52;15.95;;;8.02;;
23384;SDS011;11865;45.394;10.978;2022-09-29T04:27:19;13.32;;;9.85;;
23384;SDS011;11865;45.394;10.978;2022-09-29T04:29:47;15.52;;;8.05;;
23384;SDS011;11865;45.394;10.978;2022-09-29T04:32:14;14.77;;;8.82;;
23384;SDS011;11865;45.394;10.978;2022-09-29T04:34:42;12.63;;;8.15;;
23384;SDS011;11865;45.394;10.978;2022-09-29T04:37:09;12.93;;;7.88;;
23384;SDS011;11865;45.394;10.978;2022-09-29T04:39:37;11.90;;;8.52;;
23384;SDS011;11865;45.394;10.978;2022-09-29T04:42:05;11.75;;;7.95;;
23384;SDS011;11865;45.394;10.978;2022-09-29T04:44:32;14.48;;;8.18;;
23384;SDS011;11865;45.394;10.978;2022-09-29T04:46:59;10.35;;;7.20;;
23384;SDS011;11865;45.394;10.978;2022-09-29T04:49:27;14.70;;;9.73;;
23384;SDS011;11865;45.394;10.978;2022-09-29T04:51:54;18.83;;;9.23;;
23384;SDS011;11865;45.394;10.978;2022-09-29T04:54:22;16.50;;;9.60;;
23384;SDS011;11865;45.394;10.978;2022-09-29T04:56:49;14.85;;;9.48;;
23384;SDS011;11865;45.394;10.978;2022-09-29T04:59:17;16.50;;;9.40;;
23384;SDS011;11865;45.394;10.978;2022-09-29T05:01:44;16.23;;;9.73;;
23384;SDS011;11865;45.394;10.978;2022-09-29T05:04:12;10.20;;;7.97;;
23384;SDS011;11865;45.394;10.978;2022-09-29T05:06:39;19.58;;;8.63;;
23384;SDS011;11865;45.394;10.978;2022-09-29T05:09:07;14.43;;;9.50;;
23384;SDS011;11865;45.394;10.978;2022-09-29T05:11:34;14.63;;;8.20;;
23384;SDS011;11865;45.394;10.978;2022-09-29T05:14:02;12.18;;;8.70;;
23384;SDS011;11865;45.394;10.978;2022-09-29T05:16:30;16.25;;;8.70;;
23384;SDS011;11865;45.394;10.978;2022-09-29T05:18:58;13.38;;;8.85;;
23384;SDS011;11865;45.394;10.978;2022-09-29T05:21:25;15.95;;;8.05;;
23384;SDS011;11865;45.394;10.978;2022-09-29T05:23:55;16.73;;;9.02;;
23384;SDS011;11865;45.394;10.978;2022-09-29T05:26:22;9.43;;;4.93;;
23384;SDS011;11865;45.394;10.978;2022-09-29T05:28:50;13.35;;;4.75;;
23384;SDS011;11865;45.394;10.978;2022-09-29T05:31:17;9.98;;;4.68;;
23384;SDS011;11865;45.394;10.978;2022-09-29T05:33:45;12.68;;;5.15;;
23384;SDS011;11865;45.394;10.978;2022-09-29T05:36:12;12.90;;;6.45;;
23384;SDS011;11865;45.394;10.978;2022-09-29T05:38:40;12.40;;;4.57;;
23384;SDS011;11865;45.394;10.978;2022-09-29T05:41:08;13.68;;;6.05;;
23384;SDS011;11865;45.394;10.978;2022-09-29T05:43:39;11.20;;;4.72;;
23384;SDS011;11865;45.394;10.978;2022-09-29T05:46:08;10.60;;;4.47;;
23384;SDS011;11865;45.394;10.978;2022-09-29T05:48:36;11.82;;;4.55;;
23384;SDS011;11865;45.394;10.978;2022-09-29T05:51:08;12.18;;;4.45;;
23384;SDS011;11865;45.394;10.978;2022-09-29T05:53:37;8.02;;;4.18;;
23384;SDS011;11865;45.394;10.978;2022-09-29T05:56:15;9.50;;;4.65;;
23384;SDS011;11865;45.394;10.978;2022-09-29T05:58:44;10.45;;;4.28;;
23384;SDS011;11865;45.394;10.978;2022-09-29T06:01:16;16.42;;;4.93;;
23384;SDS011;11865;45.394;10.978;2022-09-29T06:03:47;12.88;;;4.80;;
23384;SDS011;11865;45.394;10.978;2022-09-29T06:06:15;15.05;;;6.22;;
23384;SDS011;11865;45.394;10.978;2022-09-29T06:08:47;15.45;;;6.72;;
23384;SDS011;11865;45.394;10.978;2022-09-29T06:11:17;19.42;;;7.03;;
23384;SDS011;11865;45.394;10.978;2022-09-29T06:13:47;12.95;;;6.80;;
23384;SDS011;11865;45.394;10.978;2022-09-29T06:16:17;15.50;;;7.28;;
23384;SDS011;11865;45.394;10.978;2022-09-29T06:18:46;17.98;;;5.90;;
23384;SDS011;11865;45.394;10.978;2022-09-29T06:21:18;13.18;;;5.10;;
23384;SDS011;11865;45.394;10.978;2022-09-29T06:23:46;13.77;;;5.15;;
23384;SDS011;11865;45.394;10.978;2022-09-29T06:26:15;9.02;;;3.90;;
23384;SDS011;11865;45.394;10.978;2022-09-29T06:28:49;10.00;;;4.00;;
23384;SDS011;11865;45.394;10.978;2022-09-29T06:31:18;8.68;;;4.68;;
23384;SDS011;11865;45.394;10.978;2022-09-29T06:33:48;18.17;;;4.82;;
23384;SDS011;11865;45.394;10.978;2022-09-29T06:36:17;12.77;;;5.18;;
23384;SDS011;11865;45.394;10.978;2022-09-29T06:39:06;15.85;;;4.28;;
23384;SDS011;11865;45.394;10.978;2022-09-29T06:41:35;12.30;;;4.93;;
23384;SDS011;11865;45.394;10.978;2022-09-29T06:44:06;14.32;;;3.90;;
23384;SDS011;11865;45.394;10.978;2022-09-29T06:46:33;10.93;;;4.25;;
23384;SDS011;11865;45.394;10.978;2022-09-29T06:49:01;9.30;;;3.95;;
23384;SDS011;11865;45.394;10.978;2022-09-29T06:51:28;6.85;;;3.88;;
23384;SDS011;11865;45.394;10.978;2022-09-29T06:54:11;12.67;;;5.50;;
23384;SDS011;11865;45.394;10.978;2022-09-29T06:56:45;12.27;;;5.22;;
23384;SDS011;11865;45.394;10.978;2022-09-29T06:59:13;11.93;;;4.68;;
23384;SDS011;11865;45.394;10.978;2022-09-29T07:01:41;11.73;;;4.70;;
23384;SDS011;11865;45.394;10.978;2022-09-29T07:04:09;11.48;;;5.00;;
23384;SDS011;11865;45.394;10.978;2022-09-29T07:06:36;12.57;;;5.10;;
23384;SDS011;11865;45.394;10.978;2022-09-29T07:09:03;15.82;;;5.55;;
23384;SDS011;11865;45.394;10.978;2022-09-29T07:11:31;18.42;;;6.10;;
23384;SDS011;11865;45.394;10.978;2022-09-29T07:13:58;12.82;;;4.57;;
23384;SDS011;11865;45.394;10.978;2022-09-29T07:16:26;10.80;;;4.75;;
23384;SDS011;11865;45.394;10.978;2022-09-29T07:18:53;13.48;;;5.30;;
23384;SDS011;11865;45.394;10.978;2022-09-29T07:21:21;13.30;;;4.50;;
23384;SDS011;11865;45.394;10.978;2022-09-29T07:23:48;11.98;;;4.63;;
23384;SDS011;11865;45.394;10.978;2022-09-29T07:26:16;13.63;;;5.07;;
23384;SDS011;11865;45.394;10.978;2022-09-29T07:28:44;13.15;;;5.63;;
23384;SDS011;11865;45.394;10.978;2022-09-29T07:31:13;13.60;;;4.63;;
23384;SDS011;11865;45.394;10.978;2022-09-29T07:33:43;13.43;;;5.13;;
23384;SDS011;11865;45.394;10.978;2022-09-29T07:36:12;10.23;;;4.82;;
23384;SDS011;11865;45.394;10.978;2022-09-29T07:38:41;12.57;;;4.45;;
23384;SDS011;11865;45.394;10.978;2022-09-29T07:41:11;8.25;;;3.72;;
23384;SDS011;11865;45.394;10.978;2022-09-29T07:43:38;14.43;;;4.85;;
23384;SDS011;11865;45.394;10.978;2022-09-29T07:46:06;10.23;;;4.05;;
23384;SDS011;11865;45.394;10.978;2022-09-29T07:48:35;16.45;;;4.40;;
23384;SDS011;11865;45.394;10.978;2022-09-29T07:51:04;10.32;;;4.00;;
23384;SDS011;11865;45.394;10.978;2022-09-29T07:53:39;12.27;;;4.45;;
23384;SDS011;11865;45.394;10.978;2022-09-29T07:56:11;9.30;;;3.45;;
23384;SDS011;11865;45.394;10.978;2022-09-29T07:58:44;5.45;;;3.08;;
23384;SDS011;11865;45.394;10.978;2022-09-29T08:01:13;8.10;;;3.28;;
23384;SDS011;11865;45.394;10.978;2022-09-29T08:03:42;10.10;;;4.13;;
23384;SDS011;11865;45.394;10.978;2022-09-29T08:06:15;8.95;;;3.10;;
23384;SDS011;11865;45.394;10.978;2022-09-29T08:08:42;13.60;;;3.30;;
23384;SDS011;11865;45.394;10.978;2022-09-29T08:11:22;8.60;;;3.15;;
23384;SDS011;11865;45.394;10.978;2022-09-29T08:13:57;7.93;;;3.20;;
23384;SDS011;11865;45.394;10.978;2022-09-29T08:16:25;8.45;;;3.35;;
23384;SDS011;11865;45.394;10.978;2022-09-29T08:18:53;9.13;;;2.33;;
23384;SDS011;11865;45.394;10.978;2022-09-29T08:21:20;5.97;;;2.97;;
23384;SDS011;11865;45.394;10.978;2022-09-29T08:23:48;7.10;;;2.85;;
23384;SDS011;11865;45.394;10.978;2022-09-29T08:26:16;14.23;;;3.80;;
23384;SDS011;11865;45.394;10.978;2022-09-29T08:28:59;9.73;;;3.25;;
23384;SDS011;11865;45.394;10.978;2022-09-29T08:31:34;7.57;;;2.90;;
23384;SDS011;11865;45.394;10.978;2022-09-29T08:34:03;11.15;;;3.05;;
23384;SDS011;11865;45.394;10.978;2022-09-29T08:36:30;8.10;;;2.85;;
23384;SDS011;11865;45.394;10.978;2022-09-29T08:38:58;5.88;;;2.90;;
23384;SDS011;11865;45.394;10.978;2022-09-29T08:44:14;12.27;;;3.88;;
23384;SDS011;11865;45.394;10.978;2022-09-29T08:47:21;11.02;;;3.72;;
23384;SDS011;11865;45.394;10.978;2022-09-29T08:53:07;10.95;;;4.40;;
23384;SDS011;11865;45.394;10.978;2022-09-29T08:55:54;8.32;;;3.60;;
23384;SDS011;11865;45.394;10.978;2022-09-29T08:58:24;8.82;;;3.20;;
23384;SDS011;11865;45.394;10.978;2022-09-29T09:00:54;12.88;;;3.15;;
23384;SDS011;11865;45.394;10.978;2022-09-29T09:20:10;10.65;;;3.63;;
23384;SDS011;11865;45.394;10.978;2022-09-29T09:28:32;9.05;;;3.45;;
23384;SDS011;11865;45.394;10.978;2022-09-29T09:33:42;8.73;;;3.28;;
23384;SDS011;11865;45.394;10.978;2022-09-29T09:36:32;10.48;;;3.33;;
23384;SDS011;11865;45.394;10.978;2022-09-29T09:41:51;10.23;;;3.20;;
23384;SDS011;11865;45.394;10.978;2022-09-29T09:44:26;9.35;;;3.05;;
23384;SDS011;11865;45.394;10.978;2022-09-29T09:47:02;6.60;;;3.05;;
23384;SDS011;11865;45.394;10.978;2022-09-29T09:49:42;8.52;;;3.50;;
23384;SDS011;11865;45.394;10.978;2022-09-29T09:55:26;13.27;;;3.45;;
23384;SDS011;11865;45.394;10.978;2022-09-29T10:01:01;7.28;;;2.80;;
23384;SDS011;11865;45.394;10.978;2022-09-29T10:03:33;11.15;;;2.80;;
23384;SDS011;11865;45.394;10.978;2022-09-29T10:06:03;13.57;;;3.22;;
23384;SDS011;11865;45.394;10.978;2022-09-29T10:08:35;6.22;;;2.45;;
23384;SDS011;11865;45.394;10.978;2022-09-29T10:11:26;8.13;;;2.83;;
23384;SDS011;11865;45.394;10.978;2022-09-29T10:14:02;11.40;;;3.53;;
23384;SDS011;11865;45.394;10.978;2022-09-29T10:22:23;15.52;;;4.40;;
23384;SDS011;11865;45.394;10.978;2022-09-29T10:24:53;16.23;;;4.80;;
23384;SDS011;11865;45.394;10.978;2022-09-29T10:27:31;13.05;;;3.10;;
23384;SDS011;11865;45.394;10.978;2022-09-29T10:29:59;10.35;;;2.50;;
23384;SDS011;11865;45.394;10.978;2022-09-29T10:32:30;8.30;;;2.80;;
23384;SDS011;11865;45.394;10.978;2022-09-29T10:35:05;11.25;;;2.72;;
23384;SDS011;11865;45.394;10.978;2022-09-29T10:37:42;8.52;;;2.30;;
23384;SDS011;11865;45.394;10.978;2022-09-29T10:40:18;7.55;;;2.33;;
23384;SDS011;11865;45.394;10.978;2022-09-29T10:42:50;9.82;;;2.63;;
23384;SDS011;11865;45.394;10.978;2022-09-29T10:45:23;14.07;;;3.30;;
23384;SDS011;11865;45.394;10.978;2022-09-29T10:50:28;8.65;;;2.75;;
23384;SDS011;11865;45.394;10.978;2022-09-29T10:53:05;10.07;;;2.95;;
23384;SDS011;11865;45.394;10.978;2022-09-29T10:55:54;13.68;;;3.20;;
23384;SDS011;11865;45.394;10.978;2022-09-29T10:58:34;8.55;;;2.63;;
23384;SDS011;11865;45.394;10.978;2022-09-29T11:01:24;10.43;;;2.75;;
23384;SDS011;11865;45.394;10.978;2022-09-29T11:03:55;8.80;;;2.45;;
23384;SDS011;11865;45.394;10.978;2022-09-29T11:06:30;8.43;;;2.90;;
23384;SDS011;11865;45.394;10.978;2022-09-29T11:17:20;7.35;;;2.60;;
23384;SDS011;11865;45.394;10.978;2022-09-29T11:20:05;5.72;;;2.20;;
23384;SDS011;11865;45.394;10.978;2022-09-29T11:22:49;9.27;;;2.65;;
23384;SDS011;11865;45.394;10.978;2022-09-29T11:28:24;7.60;;;2.75;;
23384;SDS011;11865;45.394;10.978;2022-09-29T11:31:20;12.45;;;3.10;;
23384;SDS011;11865;45.394;10.978;2022-09-29T11:55:15;9.70;;;2.53;;
23384;SDS011;11865;45.394;10.978;2022-09-29T12:01:18;10.15;;;2.70;;
23384;SDS011;11865;45.394;10.978;2022-09-29T12:04:13;10.70;;;3.17;;
23384;SDS011;11865;45.394;10.978;2022-09-29T12:06:55;7.57;;;2.75;;
23384;SDS011;11865;45.394;10.978;2022-09-29T12:09:47;6.53;;;2.40;;
23384;SDS011;11865;45.394;10.978;2022-09-29T12:15:10;10.45;;;3.13;;
23384;SDS011;11865;45.394;10.978;2022-09-29T12:17:56;13.45;;;3.30;;
23384;SDS011;11865;45.394;10.978;2022-09-29T12:20:36;10.20;;;2.78;;
23384;SDS011;11865;45.394;10.978;2022-09-29T12:23:09;12.90;;;3.63;;
23384;SDS011;11865;45.394;10.978;2022-09-29T12:25:41;7.20;;;2.70;;
23384;SDS011;11865;45.394;10.978;2022-09-29T12:28:19;7.10;;;2.58;;
23384;SDS011;11865;45.394;10.978;2022-09-29T12:30:51;7.88;;;2.47;;
23384;SDS011;11865;45.394;10.978;2022-09-29T12:33:24;8.80;;;2.58;;
23384;SDS011;11865;45.394;10.978;2022-09-29T12:36:15;9.88;;;2.85;;
23384;SDS011;11865;45.394;10.978;2022-09-29T12:39:12;12.70;;;2.72;;
23384;SDS011;11865;45.394;10.978;2022-09-29T12:44:49;9.27;;;2.85;;
23384;SDS011;11865;45.394;10.978;2022-09-29T12:47:19;15.52;;;2.85;;
23384;SDS011;11865;45.394;10.978;2022-09-29T12:50:24;8.60;;;2.80;;
23384;SDS011;11865;45.394;10.978;2022-09-29T12:53:19;9.57;;;3.33;;
23384;SDS011;11865;45.394;10.978;2022-09-29T12:58:31;7.63;;;2.35;;
23384;SDS011;11865;45.394;10.978;2022-09-29T13:26:15;6.40;;;2.50;;
23384;SDS011;11865;45.394;10.978;2022-09-29T13:29:20;8.10;;;2.40;;
23384;SDS011;11865;45.394;10.978;2022-09-29T13:34:28;11.27;;;3.05;;
23384;SDS011;11865;45.394;10.978;2022-09-29T13:37:15;7.50;;;2.95;;
23384;SDS011;11865;45.394;10.978;2022-09-29T13:39:53;9.27;;;3.10;;
23384;SDS011;11865;45.394;10.978;2022-09-29T13:42:43;6.90;;;2.47;;
23384;SDS011;11865;45.394;10.978;2022-09-29T13:47:58;6.18;;;2.20;;
23384;SDS011;11865;45.394;10.978;2022-09-29T13:58:24;8.10;;;2.42;;
23384;SDS011;11865;45.394;10.978;2022-09-29T14:01:00;15.45;;;3.83;;
23384;SDS011;11865;45.394;10.978;2022-09-29T14:03:31;11.13;;;2.75;;
23384;SDS011;11865;45.394;10.978;2022-09-29T14:09:13;7.47;;;2.22;;
23384;SDS011;11865;45.394;10.978;2022-09-29T14:11:48;6.53;;;2.72;;
23384;SDS011;11865;45.394;10.978;2022-09-29T14:20:27;7.10;;;2.80;;
23384;SDS011;11865;45.394;10.978;2022-09-29T14:23:03;7.40;;;2.70;;
23384;SDS011;11865;45.394;10.978;2022-09-29T14:28:31;11.60;;;2.67;;
23384;SDS011;11865;45.394;10.978;2022-09-29T14:31:00;10.68;;;3.35;;
23384;SDS011;11865;45.394;10.978;2022-09-29T14:33:37;8.20;;;2.53;;
23384;SDS011;11865;45.394;10.978;2022-09-29T14:36:13;8.48;;;2.53;;
23384;SDS011;11865;45.394;10.978;2022-09-29T14:38:53;10.43;;;2.60;;
23384;SDS011;11865;45.394;10.978;2022-09-29T14:41:43;6.93;;;2.60;;
23384;SDS011;11865;45.394;10.978;2022-09-29T14:44:16;11.57;;;3.08;;
23384;SDS011;11865;45.394;10.978;2022-09-29T14:48:01;9.77;;;3.75;;
23384;SDS011;11865;45.394;10.978;2022-09-29T15:01:27;11.90;;;2.70;;
23384;SDS011;11865;45.394;10.978;2022-09-29T15:03:57;9.15;;;2.95;;
23384;SDS011;11865;45.394;10.978;2022-09-29T15:06:44;12.30;;;2.95;;
23384;SDS011;11865;45.394;10.978;2022-09-29T15:09:22;6.43;;;2.83;;
23384;SDS011;11865;45.394;10.978;2022-09-29T15:11:54;6.88;;;2.67;;
23384;SDS011;11865;45.394;10.978;2022-09-29T15:14:30;6.07;;;3.00;;
23384;SDS011;11865;45.394;10.978;2022-09-29T15:23:10;9.15;;;3.00;;
23384;SDS011;11865;45.394;10.978;2022-09-29T15:25:36;10.07;;;3.00;;
23384;SDS011;11865;45.394;10.978;2022-09-29T15:28:16;8.85;;;3.30;;
23384;SDS011;11865;45.394;10.978;2022-09-29T15:30:51;10.93;;;3.45;;
23384;SDS011;11865;45.394;10.978;2022-09-29T15:33:24;13.00;;;3.20;;
23384;SDS011;11865;45.394;10.978;2022-09-29T15:36:00;9.98;;;2.90;;
23384;SDS011;11865;45.394;10.978;2022-09-29T15:38:33;11.70;;;3.70;;
23384;SDS011;11865;45.394;10.978;2022-09-29T15:43:58;8.57;;;3.15;;
23384;SDS011;11865;45.394;10.978;2022-09-29T15:49:14;7.82;;;2.53;;
23384;SDS011;11865;45.394;10.978;2022-09-29T15:51:45;4.18;;;1.98;;
23384;SDS011;11865;45.394;10.978;2022-09-29T15:54:23;4.72;;;2.40;;
23384;SDS011;11865;45.394;10.978;2022-09-29T15:56:53;7.43;;;2.38;;
23384;SDS011;11865;45.394;10.978;2022-09-29T15:59:44;6.88;;;1.58;;
23384;SDS011;11865;45.394;10.978;2022-09-29T16:02:21;3.53;;;1.20;;
23384;SDS011;11865;45.394;10.978;2022-09-29T16:04:51;4.85;;;1.35;;
23384;SDS011;11865;45.394;10.978;2022-09-29T16:07:23;2.60;;;1.20;;
23384;SDS011;11865;45.394;10.978;2022-09-29T16:09:57;5.45;;;1.40;;
23384;SDS011;11865;45.394;10.978;2022-09-29T16:12:28;3.22;;;1.40;;
23384;SDS011;11865;45.394;10.978;2022-09-29T16:15:01;3.03;;;1.20;;
23384;SDS011;11865;45.394;10.978;2022-09-29T16:17:29;3.28;;;1.25;;
23384;SDS011;11865;45.394;10.978;2022-09-29T16:19:57;3.67;;;1.10;;
23384;SDS011;11865;45.394;10.978;2022-09-29T16:22:26;6.72;;;1.73;;
23384;SDS011;11865;45.394;10.978;2022-09-29T16:25:06;3.20;;;1.48;;
23384;SDS011;11865;45.394;10.978;2022-09-29T16:30:27;3.92;;;1.52;;
23384;SDS011;11865;45.394;10.978;2022-09-29T16:33:05;6.55;;;1.50;;
23384;SDS011;11865;45.394;10.978;2022-09-29T16:38:29;4.05;;;1.63;;
23384;SDS011;11865;45.394;10.978;2022-09-29T16:44:04;4.60;;;1.65;;
23384;SDS011;11865;45.394;10.978;2022-09-29T16:49:29;4.38;;;1.38;;
23384;SDS011;11865;45.394;10.978;2022-09-29T16:52:01;3.30;;;1.48;;
23384;SDS011;11865;45.394;10.978;2022-09-29T16:54:42;5.65;;;1.50;;
23384;SDS011;11865;45.394;10.978;2022-09-29T16:59:45;3.97;;;1.48;;
23384;SDS011;11865;45.394;10.978;2022-09-29T17:02:14;7.75;;;2.25;;
23384;SDS011;11865;45.394;10.978;2022-09-29T17:04:41;6.55;;;2.50;;
23384;SDS011;11865;45.394;10.978;2022-09-29T17:07:15;6.75;;;3.10;;
23384;SDS011;11865;45.394;10.978;2022-09-29T17:09:45;10.52;;;3.28;;
23384;SDS011;11865;45.394;10.978;2022-09-29T17:12:15;6.30;;;2.90;;
23384;SDS011;11865;45.394;10.978;2022-09-29T17:14:43;8.52;;;3.40;;
23384;SDS011;11865;45.394;10.978;2022-09-29T17:17:33;5.40;;;2.75;;
23384;SDS011;11865;45.394;10.978;2022-09-29T17:20:01;6.88;;;2.55;;
23384;SDS011;11865;45.394;10.978;2022-09-29T17:22:33;7.75;;;2.85;;
23384;SDS011;11865;45.394;10.978;2022-09-29T17:25:05;6.97;;;3.13;;
23384;SDS011;11865;45.394;10.978;2022-09-29T17:27:33;10.00;;;2.80;;
23384;SDS011;11865;45.394;10.978;2022-09-29T17:30:20;8.32;;;3.00;;
23384;SDS011;11865;45.394;10.978;2022-09-29T17:32:50;8.02;;;3.33;;
23384;SDS011;11865;45.394;10.978;2022-09-29T17:35:22;5.57;;;2.00;;
23384;SDS011;11865;45.394;10.978;2022-09-29T17:37:53;7.57;;;2.20;;
23384;SDS011;11865;45.394;10.978;2022-09-29T17:42:59;6.53;;;2.20;;
23384;SDS011;11865;45.394;10.978;2022-09-29T17:45:27;5.03;;;2.05;;
23384;SDS011;11865;45.394;10.978;2022-09-29T17:47:56;3.67;;;1.48;;
23384;SDS011;11865;45.394;10.978;2022-09-29T17:50:25;5.35;;;1.80;;
23384;SDS011;11865;45.394;10.978;2022-09-29T17:52:58;6.35;;;2.55;;
23384;SDS011;11865;45.394;10.978;2022-09-29T17:55:26;5.82;;;1.98;;
23384;SDS011;11865;45.394;10.978;2022-09-29T17:57:54;5.10;;;2.38;;
23384;SDS011;11865;45.394;10.978;2022-09-29T18:00:22;4.30;;;1.58;;
23384;SDS011;11865;45.394;10.978;2022-09-29T18:03:10;3.92;;;1.40;;
23384;SDS011;11865;45.394;10.978;2022-09-29T18:05:39;2.75;;;1.20;;
23384;SDS011;11865;45.394;10.978;2022-09-29T18:08:09;2.67;;;1.40;;
23384;SDS011;11865;45.394;10.978;2022-09-29T18:10:50;6.45;;;1.70;;
23384;SDS011;11865;45.394;10.978;2022-09-29T18:13:22;3.78;;;2.05;;
23384;SDS011;11865;45.394;10.978;2022-09-29T18:15:54;17.10;;;4.45;;
23384;SDS011;11865;45.394;10.978;2022-09-29T18:18:22;6.15;;;2.03;;
23384;SDS011;11865;45.394;10.978;2022-09-29T18:20:50;4.70;;;1.60;;
23384;SDS011;11865;45.394;10.978;2022-09-29T18:23:17;4.70;;;1.73;;
23384;SDS011;11865;45.394;10.978;2022-09-29T18:25:47;2.72;;;1.35;;
23384;SDS011;11865;45.394;10.978;2022-09-29T18:28:16;5.55;;;1.35;;
23384;SDS011;11865;45.394;10.978;2022-09-29T18:30:45;4.82;;;1.95;;
23384;SDS011;11865;45.394;10.978;2022-09-29T18:33:16;6.00;;;1.77;;
23384;SDS011;11865;45.394;10.978;2022-09-29T18:35:50;2.90;;;1.40;;